createdAt,value
2022-09-03T00:01:55.928Z,0.60
2022-09-03T00:05:11.815Z,1.30
2022-09-03T00:08:04.090Z,0.52
2022-09-03T00:11:09.804Z,1.17
2022-09-03T00:13:56.895Z,0.28
2022-09-03T00:17:02.810Z,0.25
2022-09-03T00:19:59.793Z,0.38
2022-09-03T00:22:45.181Z,0.32
2022-09-03T00:25:37.787Z,0.13
2022-09-03T00:28:36.781Z,0.30
2022-09-03T00:31:27.529Z,1.23
2022-09-03T00:34:47.762Z,1.45
2022-09-03T00:37:38.202Z,0.82
2022-09-03T00:40:45.761Z,0.15
2022-09-03T00:43:58.642Z,0.20
2022-09-03T00:47:06.758Z,0.10
2022-09-03T00:50:09.791Z,0.32
2022-09-03T00:53:10.845Z,0.93
2022-09-03T00:56:24.743Z,0.95
2022-09-03T00:59:23.740Z,1.55
2022-09-03T01:02:39.853Z,1.05
2022-09-03T01:05:28.913Z,1.45
2022-09-03T01:08:22.822Z,0.63
2022-09-03T01:11:11.997Z,0.68
2022-09-03T01:14:16.731Z,0.52
2022-09-03T01:17:13.729Z,4.68
2022-09-03T01:20:08.118Z,4.72
2022-09-03T01:23:11.696Z,4.40
2022-09-03T01:26:36.741Z,4.72
2022-09-03T01:29:46.722Z,5.00
2022-09-03T01:32:46.705Z,5.47
2022-09-03T01:35:35.259Z,4.70
2022-09-03T01:38:43.713Z,4.50
2022-09-03T01:42:20.219Z,3.78
2022-09-03T01:45:16.729Z,3.25
2022-09-03T01:48:23.747Z,3.50
2022-09-03T01:51:35.861Z,3.17
2022-09-03T01:54:47.735Z,2.40
2022-09-03T01:57:56.791Z,3.53
2022-09-03T02:00:49.701Z,2.72
2022-09-03T02:03:40.840Z,2.80
2022-09-03T02:06:21.149Z,2.30
2022-09-03T02:09:07.690Z,2.60
2022-09-03T02:12:06.675Z,3.30
2022-09-03T02:14:48.430Z,4.18
2022-09-03T02:17:35.649Z,3.40
2022-09-03T02:20:26.657Z,3.13
2022-09-03T02:23:13.640Z,3.40
2022-09-03T02:26:09.682Z,3.58
2022-09-03T02:29:04.652Z,3.90
2022-09-03T02:31:45.357Z,3.28
2022-09-03T02:34:31.679Z,3.58
2022-09-03T02:37:21.650Z,3.22
2022-09-03T02:40:02.245Z,3.92
2022-09-03T02:42:48.638Z,4.10
2022-09-03T02:45:36.635Z,4.13
2022-09-03T02:48:29.638Z,5.25
2022-09-03T02:51:14.120Z,4.40
2022-09-03T02:54:01.614Z,4.72
2022-09-03T02:56:41.730Z,4.97
2022-09-03T02:59:29.619Z,5.05
2022-09-03T03:02:17.705Z,5.53
2022-09-03T03:05:04.607Z,4.90
2022-09-03T03:25:49.645Z,5.05
2022-09-03T03:28:34.069Z,4.88
2022-09-03T03:31:21.741Z,4.53
2022-09-03T03:34:09.657Z,4.35
2022-09-03T03:36:49.762Z,4.30
2022-09-03T03:39:36.657Z,4.22
2022-09-03T03:42:16.751Z,3.55
2022-09-03T03:45:03.695Z,3.97
2022-09-03T03:47:50.670Z,4.07
2022-09-03T03:50:37.626Z,3.58
2022-09-03T03:53:24.629Z,3.90
2022-09-03T03:56:08.025Z,4.07
2022-09-03T03:58:55.584Z,3.85
2022-09-03T04:01:42.651Z,4.03
2022-09-03T04:04:23.729Z,3.72
2022-09-03T04:07:10.615Z,3.58
2022-09-03T04:09:50.779Z,3.67
2022-09-03T04:12:37.623Z,3.60
2022-09-03T04:15:24.605Z,4.00
2022-09-03T04:18:05.521Z,3.42
2022-09-03T04:20:52.618Z,3.80
2022-09-03T04:23:51.555Z,4.53
2022-09-03T04:26:40.624Z,3.67
2022-09-03T04:29:22.118Z,4.82
2022-09-03T04:32:27.574Z,5.20
2022-09-03T04:35:14.586Z,4.45
2022-09-03T04:38:01.579Z,4.35
2022-09-03T04:40:41.684Z,4.80
2022-09-03T04:43:28.558Z,4.63
2022-09-03T04:46:18.650Z,4.68
2022-09-03T04:48:59.127Z,4.07
2022-09-03T04:51:45.571Z,5.30
2022-09-03T04:54:28.089Z,4.45
2022-09-03T04:57:16.559Z,4.93
2022-09-03T05:00:03.587Z,5.40
2022-09-03T05:02:43.637Z,4.93
2022-09-03T05:05:30.531Z,4.38
2022-09-03T05:08:11.339Z,4.88
2022-09-03T05:11:07.535Z,5.75
2022-09-03T05:13:54.567Z,4.50
2022-09-03T05:16:41.769Z,5.07
2022-09-03T05:19:21.560Z,4.32
2022-09-03T05:22:01.919Z,5.05
2022-09-03T05:24:48.500Z,4.35
2022-09-03T05:27:35.522Z,4.82
2022-09-03T05:30:16.632Z,5.25
2022-09-03T05:33:03.529Z,6.63
2022-09-03T05:35:43.630Z,5.35
2022-09-03T05:38:30.538Z,5.32
2022-09-03T05:41:21.510Z,6.10
2022-09-03T05:44:02.207Z,5.05
2022-09-03T05:46:48.510Z,6.15
2022-09-03T05:49:36.497Z,6.30
2022-09-03T05:52:16.864Z,5.97
2022-09-03T05:55:03.462Z,6.90
2022-09-03T05:57:50.520Z,6.70
2022-09-03T06:00:37.495Z,7.53
2022-09-03T06:03:17.731Z,7.05
2022-09-03T06:06:04.497Z,7.40
2022-09-03T06:08:45.053Z,7.47
2022-09-03T06:11:37.439Z,7.90
2022-09-03T06:14:26.467Z,7.32
2022-09-03T06:17:06.927Z,6.47
2022-09-03T06:19:53.452Z,7.25
2022-09-03T06:22:33.904Z,7.47
2022-09-03T06:25:21.443Z,7.60
2022-09-03T06:28:02.383Z,8.40
2022-09-03T06:30:49.507Z,8.32
2022-09-03T06:33:31.518Z,8.40
2022-09-03T06:36:20.456Z,7.40
2022-09-03T06:39:08.464Z,7.28
2022-09-03T06:41:51.919Z,7.45
2022-09-03T06:44:46.432Z,7.68
2022-09-03T06:47:26.569Z,6.82
2022-09-03T06:50:13.456Z,5.90
2022-09-03T06:52:58.558Z,6.70
2022-09-03T06:55:46.405Z,6.78
2022-09-03T06:58:26.651Z,7.32
2022-09-03T07:01:15.527Z,7.72
2022-09-03T07:04:01.067Z,6.50
2022-09-03T07:06:49.410Z,6.97
2022-09-03T07:09:29.518Z,6.93
2022-09-03T07:12:17.406Z,6.38
2022-09-03T07:15:04.399Z,6.53
2022-09-03T07:17:51.413Z,6.53
2022-09-03T07:20:38.493Z,6.60
2022-09-03T07:23:25.991Z,6.25
2022-09-03T07:26:15.419Z,6.97
2022-09-03T07:28:56.675Z,7.13
2022-09-03T07:31:48.448Z,7.07
2022-09-03T07:34:29.507Z,6.80
2022-09-03T07:37:16.390Z,7.07
2022-09-03T07:39:56.538Z,7.63
2022-09-03T07:42:46.416Z,7.43
2022-09-03T07:45:35.371Z,7.60
2022-09-03T07:48:17.885Z,7.60
2022-09-03T07:51:06.384Z,9.05
2022-09-03T07:53:48.822Z,8.25
2022-09-03T07:56:37.340Z,7.90
2022-09-03T07:59:18.231Z,7.57
2022-09-03T08:02:05.368Z,8.98
2022-09-03T08:04:46.064Z,8.43
2022-09-03T08:07:32.370Z,7.70
2022-09-03T08:10:19.348Z,7.72
2022-09-03T08:13:06.385Z,7.55
2022-09-03T08:16:03.433Z,7.28
2022-09-03T08:18:45.067Z,6.88
2022-09-03T08:21:34.332Z,8.25
2022-09-03T08:24:21.393Z,7.68
2022-09-03T08:27:01.871Z,8.23
2022-09-03T08:29:48.334Z,7.63
2022-09-03T08:32:28.746Z,7.70
2022-09-03T08:35:16.357Z,6.03
2022-09-03T08:38:03.344Z,6.40
2022-09-03T08:40:46.213Z,6.25
2022-09-03T08:43:33.303Z,7.88
2022-09-03T08:46:21.366Z,8.77
2022-09-03T08:49:08.341Z,5.70
2022-09-03T08:51:58.308Z,6.18
2022-09-03T08:54:45.291Z,6.68
2022-09-03T08:57:34.292Z,5.68
2022-09-03T09:00:15.690Z,6.38
2022-09-03T09:03:14.334Z,6.13
2022-09-03T09:06:28.481Z,7.28
2022-09-03T09:09:17.273Z,6.93
2022-09-03T09:12:21.412Z,7.40
2022-09-03T09:15:01.309Z,6.53
2022-09-03T09:18:14.296Z,7.50
2022-09-03T09:21:18.988Z,6.07
2022-09-03T09:24:18.277Z,8.75
2022-09-03T09:27:18.312Z,5.03
2022-09-03T09:30:08.304Z,7.72
2022-09-03T09:32:48.391Z,6.57
2022-09-03T09:35:35.287Z,7.03
2022-09-03T09:38:16.608Z,6.30
2022-09-03T09:41:06.288Z,6.10
2022-09-03T09:43:48.119Z,5.95
2022-09-03T09:46:50.288Z,6.07
2022-09-03T09:49:52.449Z,6.45
2022-09-03T09:52:40.274Z,5.25
2022-09-03T09:55:26.721Z,5.22
2022-09-03T09:58:17.268Z,5.45
2022-09-03T10:01:20.281Z,4.90
2022-09-03T10:04:21.211Z,4.80
2022-09-03T10:07:10.216Z,5.13
2022-09-03T10:10:14.250Z,4.40
2022-09-03T10:13:09.578Z,4.05
2022-09-03T10:16:05.318Z,5.32
2022-09-03T10:19:01.260Z,5.07
2022-09-03T10:21:53.786Z,4.70
2022-09-03T10:25:03.265Z,5.72
2022-09-03T10:27:53.254Z,3.85
2022-09-03T10:30:33.338Z,4.97
2022-09-03T10:33:34.298Z,4.45
2022-09-03T10:36:30.220Z,4.57
2022-09-03T10:39:47.734Z,4.30
2022-09-03T10:43:06.277Z,4.93
2022-09-03T10:45:59.217Z,4.57
2022-09-03T10:48:42.664Z,5.63
2022-09-03T10:51:36.229Z,5.07
2022-09-03T10:54:39.186Z,4.90
2022-09-03T10:57:42.214Z,4.13
2022-09-03T11:00:24.429Z,4.28
2022-09-03T11:03:32.192Z,4.55
2022-09-03T11:06:49.183Z,5.32
2022-09-03T11:09:32.172Z,4.85
2022-09-03T11:12:28.219Z,4.75
2022-09-03T11:15:31.528Z,4.53
2022-09-03T11:18:32.182Z,4.65
2022-09-03T11:21:16.808Z,6.00
2022-09-03T11:24:08.177Z,4.80
2022-09-03T11:27:03.306Z,3.95
2022-09-03T11:30:04.198Z,3.85
2022-09-03T11:32:57.194Z,5.97
2022-09-03T11:35:41.086Z,4.95
2022-09-03T11:41:37.173Z,4.93
2022-09-03T11:44:19.083Z,5.32
2022-09-03T11:47:13.144Z,6.03
2022-09-03T11:50:11.168Z,4.55
2022-09-03T11:52:51.983Z,5.32
2022-09-03T11:55:56.201Z,4.40
2022-09-03T11:58:40.706Z,4.65
2022-09-03T12:04:11.290Z,5.22
2022-09-03T12:10:11.314Z,4.70
2022-09-03T12:13:17.158Z,4.95
2022-09-03T12:16:25.142Z,5.50
2022-09-03T12:19:20.122Z,4.75
2022-09-03T12:22:11.122Z,4.82
2022-09-03T12:25:05.089Z,4.95
2022-09-03T12:27:53.126Z,4.50
2022-09-03T12:30:33.300Z,5.15
2022-09-03T12:33:24.121Z,5.95
2022-09-03T12:36:12.092Z,5.35
2022-09-03T12:39:14.510Z,5.22
2022-09-03T12:42:18.090Z,4.25
2022-09-03T12:45:22.086Z,4.35
2022-09-03T12:48:09.117Z,4.25
2022-09-03T12:54:13.292Z,4.20
2022-09-03T12:57:07.080Z,3.97
2022-09-03T12:59:47.175Z,3.92
2022-09-03T13:02:43.051Z,3.75
2022-09-03T13:05:34.060Z,3.95
2022-09-03T13:08:21.740Z,4.25
2022-09-03T13:11:12.086Z,4.35
2022-09-03T13:14:06.808Z,4.50
2022-09-03T13:17:01.155Z,9.25
2022-09-03T13:19:55.081Z,3.90
2022-09-03T13:22:57.061Z,3.90
2022-09-03T13:26:06.992Z,3.95
2022-09-03T13:29:08.716Z,5.10
2022-09-03T13:32:06.136Z,4.18
2022-09-03T13:34:55.850Z,4.43
2022-09-03T13:37:59.021Z,4.88
2022-09-03T13:40:50.334Z,4.45
2022-09-03T13:43:51.029Z,3.65
2022-09-03T13:46:48.044Z,3.75
2022-09-03T13:50:21.888Z,4.32
2022-09-03T13:53:29.054Z,5.10
2022-09-03T13:56:34.011Z,4.20
2022-09-03T13:59:26.186Z,7.30
2022-09-03T14:02:34.065Z,5.22
2022-09-03T14:05:32.993Z,5.22
2022-09-03T14:08:35.496Z,5.10
2022-09-03T14:11:32.984Z,4.13
2022-09-03T14:14:54.005Z,4.88
2022-09-03T14:17:47.114Z,4.65
2022-09-03T14:20:45.977Z,4.35
2022-09-03T14:23:45.080Z,4.00
2022-09-03T14:26:39.945Z,3.60
2022-09-03T14:29:26.990Z,3.90
2022-09-03T14:32:32.067Z,3.58
2022-09-03T14:35:33.019Z,3.25
2022-09-03T14:38:48.003Z,3.38
2022-09-03T14:41:50.555Z,2.88
2022-09-03T14:44:49.941Z,2.88
2022-09-03T14:48:10.960Z,3.25
2022-09-03T14:50:57.957Z,3.08
2022-09-03T14:54:09.950Z,3.53
2022-09-03T14:57:13.421Z,5.00
2022-09-03T15:00:05.962Z,2.17
2022-09-03T15:03:13.921Z,2.55
2022-09-03T15:06:17.077Z,2.97
2022-09-03T15:09:37.930Z,3.83
2022-09-03T15:28:34.526Z,3.97
2022-09-03T15:31:23.100Z,4.43
2022-09-03T15:34:46.240Z,4.65
2022-09-03T15:37:32.793Z,4.90
2022-09-03T15:40:55.172Z,4.25
2022-09-03T15:43:35.677Z,5.55
2022-09-03T15:46:47.230Z,4.82
2022-09-03T15:49:32.047Z,4.78
2022-09-03T15:52:41.204Z,4.78
2022-09-03T15:55:49.186Z,4.75
2022-09-03T15:58:59.170Z,5.80
2022-09-03T16:01:59.558Z,6.13
2022-09-03T16:04:54.174Z,6.88
2022-09-03T16:07:44.158Z,6.28
2022-09-03T16:10:36.182Z,6.55
2022-09-03T16:13:51.172Z,6.32
2022-09-03T16:16:57.161Z,5.82
2022-09-03T16:19:43.550Z,6.53
2022-09-03T16:22:36.204Z,6.15
2022-09-03T16:25:58.167Z,7.35
2022-09-03T16:29:19.009Z,7.28
2022-09-03T16:32:23.158Z,6.53
2022-09-03T16:35:27.856Z,6.40
2022-09-03T16:38:32.145Z,6.55
2022-09-03T16:44:21.113Z,6.88
2022-09-03T16:47:25.129Z,6.57
2022-09-03T16:50:43.120Z,6.90
2022-09-03T16:53:50.185Z,6.15
2022-09-03T16:57:06.134Z,7.00
2022-09-03T17:00:02.680Z,7.10
2022-09-03T17:03:10.101Z,6.47
2022-09-03T17:06:15.080Z,6.88
2022-09-03T17:11:54.382Z,7.03
2022-09-03T17:15:01.113Z,6.57
2022-09-03T17:18:36.049Z,7.20
2022-09-03T17:22:09.057Z,6.70
2022-09-03T17:25:22.102Z,6.55
2022-09-03T17:28:24.883Z,6.60
2022-09-03T17:31:11.152Z,6.32
2022-09-03T17:34:09.040Z,6.70
2022-09-03T17:37:19.053Z,6.28
2022-09-03T17:40:40.212Z,5.78
2022-09-03T17:43:20.136Z,6.28
2022-09-03T17:46:22.644Z,6.00
2022-09-03T17:49:16.095Z,6.03
2022-09-03T17:52:07.486Z,5.75
2022-09-03T17:54:59.049Z,6.38
2022-09-03T17:57:46.928Z,6.65
2022-09-03T18:00:52.066Z,6.32
2022-09-03T18:07:10.042Z,5.82
2022-09-03T18:10:32.052Z,5.72
2022-09-03T18:13:23.639Z,6.22
2022-09-03T18:16:22.090Z,7.60
2022-09-03T18:19:31.273Z,6.28
2022-09-03T18:22:36.017Z,6.57
2022-09-03T18:25:38.912Z,5.40
2022-09-03T18:28:51.026Z,5.35
2022-09-03T18:31:49.835Z,4.95
2022-09-03T18:35:04.004Z,4.75
2022-09-03T18:38:02.650Z,4.80
2022-09-03T18:41:50.036Z,5.25
2022-09-03T18:45:24.339Z,4.30
2022-09-03T18:48:37.990Z,5.53
2022-09-03T18:51:52.992Z,5.10
2022-09-03T18:55:08.267Z,4.65
2022-09-03T18:58:12.601Z,4.93
2022-09-03T19:01:30.069Z,4.65
2022-09-03T19:04:57.844Z,5.93
2022-09-03T19:08:12.981Z,4.53
2022-09-03T19:11:24.683Z,6.13
2022-09-03T19:14:40.957Z,5.85
2022-09-03T19:18:10.953Z,7.07
2022-09-03T19:21:46.741Z,6.22
2022-09-03T19:28:45.933Z,7.47
2022-09-03T19:32:12.934Z,5.75
2022-09-03T19:35:41.945Z,6.22
2022-09-03T19:38:50.131Z,6.97
2022-09-03T19:42:09.909Z,5.72
2022-09-03T19:45:30.508Z,6.53
2022-09-03T19:49:17.898Z,7.32
2022-09-03T19:52:41.002Z,6.00
2022-09-03T19:55:46.833Z,6.28
2022-09-03T19:58:56.897Z,6.35
2022-09-03T20:02:07.746Z,5.30
2022-09-03T21:10:38.789Z,5.45
2022-09-03T21:13:40.370Z,4.90
2022-09-03T21:16:51.827Z,4.43
2022-09-03T21:19:56.778Z,27.90
2022-09-03T21:25:45.795Z,4.90
2022-09-03T21:29:06.938Z,4.30
2022-09-03T21:32:16.837Z,5.05
2022-09-03T21:35:08.956Z,4.75
2022-09-03T21:38:18.787Z,5.05
2022-09-03T21:41:15.756Z,4.95
2022-09-03T21:44:10.752Z,4.00
2022-09-03T21:47:07.779Z,4.57
2022-09-03T21:49:57.410Z,4.80
2022-09-03T21:53:23.762Z,4.55
2022-09-03T21:56:37.154Z,4.57
2022-09-03T21:59:52.782Z,4.22
2022-09-03T22:02:42.868Z,4.47
2022-09-03T22:05:23.890Z,4.50
2022-09-03T22:08:18.751Z,4.30
2022-09-03T22:11:29.748Z,3.83
2022-09-03T22:14:16.913Z,3.75
2022-09-03T22:17:21.757Z,4.10
2022-09-03T22:23:03.722Z,4.45
2022-09-03T22:26:28.766Z,4.15
2022-09-03T22:29:16.857Z,3.88
2022-09-03T22:32:10.739Z,3.70
2022-09-03T22:35:06.738Z,4.13
2022-09-03T22:38:19.013Z,4.30
2022-09-03T22:41:24.737Z,3.80
2022-09-03T22:44:33.669Z,3.53
2022-09-03T22:47:39.736Z,3.97
2022-09-03T22:50:20.705Z,3.90
2022-09-03T22:53:44.716Z,4.88
2022-09-03T22:56:32.727Z,4.57
2022-09-03T22:59:51.714Z,4.60
2022-09-03T23:02:32.868Z,4.18
2022-09-03T23:05:50.703Z,5.00
2022-09-03T23:08:45.419Z,5.05
2022-09-03T23:11:50.715Z,4.80
2022-09-03T23:20:31.707Z,4.47
2022-09-03T23:23:22.848Z,5.15
2022-09-03T23:26:29.665Z,5.95
2022-09-03T23:29:26.215Z,5.03
2022-09-03T23:32:12.707Z,5.97
2022-09-03T23:34:59.689Z,4.85
2022-09-03T23:38:01.683Z,5.47
2022-09-03T23:40:53.800Z,5.15
2022-09-03T23:44:12.651Z,5.88
2022-09-03T23:47:31.633Z,6.10
2022-09-03T23:50:32.629Z,6.38
2022-09-03T23:53:37.763Z,6.38
2022-09-03T23:59:34.658Z,5.97
